Concordville, ME

8:16 AM EDT on April 28, 2017 (GMT -0400)
Short Sands | | Change Station
Active Advisory: Special Statement

Elev 36 ft 43.17 °N, 70.61 °W | Updated 11 seconds ago

Fog
Fog
49.8 °F
Feels Like 50 °F
N
0.0
Wind Variable Wind from SSW
Gusts 0.0 mph

Today
High -- | Low -- °F
--% Chance of Precip.
Yesterday
High -- | Low -- °F
Precip. -- in
Pressure 29.95 in
Visibility 1.0 miles
Clouds Overcast 200 ft
Windchill 50 °F
Dew Point 50 °F
Humidity 99%
Rainfall 0.00 in
Snow Depth Not available.
5:39 AM 7:40 PM
Waxing Crescent, 6% visible
METAR KPSM 281158Z 00000KT 1SM R34/P6000FT BR OVC002 12/11 A2994 RMK AO2A SLP141 T01170114 10117 20095 50009
Pressure 29.95 in
Visibility 1.0 miles
Clouds Overcast 200 ft
Windchill 50 °F
Dew Point 50 °F
Humidity 99%
Rainfall 0.00 in
Snow Depth Not available.
5:39 AM 7:40 PM
Waxing Crescent, 6% visible
METAR KPSM 281158Z 00000KT 1SM R34/P6000FT BR OVC002 12/11 A2994 RMK AO2A SLP141 T01170114 10117 20095 50009

Get Your Daily Forecast Email!

Thanks for signing up!

Be on the lookout for a verification email in your inbox.

You'll start receiving severe weather alerts in your inbox..

×

10-Day Weather Forecast

Almanac

Astronomy

Apr. 28, 2017 Rise Set
Actual Time
Civil Twilight
Nautical Twilight
Astronomical Twilight
Moon
Length of Visible Light
Length of Day
Tomorrow will be .
, % of the Moon is Illuminated

Today's Extremes

State Highs State Lows

Community

WunderPhotos

WunderBlog® & News

Nearby

Air Quality

  Air Quality AQ Index Pollutant
Not available.

Snow Depth

Station Depth Elevation

Earthquake Activity

City Distance Mag. Time & Date
Minimum magnitude displayed is 2.5.

Coastal Water Temperatures

Place Temperature

Stations

Nearby Weather Stations

Station Location Temp. Windchill Dew Point Humidity Wind Precip. Elev Updated Type
                   

Watches & Warnings

Special Statement
Issued: 5:22 AM EDT Apr. 28, 2017 – National Weather Service

... Areas of dense fog early this morning...

Areas of dense fog will lower visibilities to a quarter mile or
less at times early this morning across portions of southeastern
New Hampshire and Maine through 9 am. This will make for
hazardous driving conditions in spots. Use extra caution while
traveling early this morning as visibilities may change quickly
over short distances.


Mle

522 am EDT Fri Apr 28 2017

... Areas of dense fog early this morning...

Areas of dense fog will lower visibilities to a quarter mile or
less at times early this morning across portions of southeastern
New Hampshire and Maine through 9 am. This will make for
hazardous driving conditions in spots. Use extra caution while
traveling early this morning as visibilities may change quickly
over short distances.


Mle